sensor_id;sensor_type;location;lat;lon;timestamp;P1;durP1;ratioP1;P2;durP2;ratioP2
84660;SDS011;74889;52.240;20.902;2024-03-17T00:01:19;11.10;;;2.40;;
84660;SDS011;74889;52.240;20.902;2024-03-17T00:03:44;9.30;;;2.10;;
84660;SDS011;74889;52.240;20.902;2024-03-17T00:06:10;14.20;;;2.30;;
84660;SDS011;74889;52.240;20.902;2024-03-17T00:08:36;5.90;;;1.50;;
84660;SDS011;74889;52.240;20.902;2024-03-17T00:11:01;13.10;;;2.00;;
84660;SDS011;74889;52.240;20.902;2024-03-17T00:13:27;8.10;;;1.90;;
84660;SDS011;74889;52.240;20.902;2024-03-17T00:15:52;14.20;;;2.30;;
84660;SDS011;74889;52.240;20.902;2024-03-17T00:18:18;10.70;;;1.80;;
84660;SDS011;74889;52.240;20.902;2024-03-17T00:20:44;14.20;;;2.40;;
84660;SDS011;74889;52.240;20.902;2024-03-17T00:23:10;16.40;;;2.40;;
84660;SDS011;74889;52.240;20.902;2024-03-17T00:25:37;9.20;;;1.90;;
84660;SDS011;74889;52.240;20.902;2024-03-17T00:28:05;13.60;;;2.10;;
84660;SDS011;74889;52.240;20.902;2024-03-17T00:30:31;10.90;;;2.40;;
84660;SDS011;74889;52.240;20.902;2024-03-17T00:32:57;8.10;;;1.70;;
84660;SDS011;74889;52.240;20.902;2024-03-17T00:35:26;12.90;;;2.30;;
84660;SDS011;74889;52.240;20.902;2024-03-17T00:37:52;17.30;;;2.50;;
84660;SDS011;74889;52.240;20.902;2024-03-17T00:40:18;12.70;;;2.50;;
84660;SDS011;74889;52.240;20.902;2024-03-17T00:42:45;20.30;;;2.50;;
84660;SDS011;74889;52.240;20.902;2024-03-17T00:45:12;17.40;;;3.20;;
84660;SDS011;74889;52.240;20.902;2024-03-17T00:47:38;13.10;;;2.20;;
84660;SDS011;74889;52.240;20.902;2024-03-17T00:50:05;15.80;;;2.90;;
84660;SDS011;74889;52.240;20.902;2024-03-17T00:52:36;8.70;;;2.10;;
84660;SDS011;74889;52.240;20.902;2024-03-17T00:55:02;13.30;;;2.10;;
84660;SDS011;74889;52.240;20.902;2024-03-17T00:57:28;11.50;;;2.50;;
84660;SDS011;74889;52.240;20.902;2024-03-17T00:59:54;13.00;;;2.70;;
84660;SDS011;74889;52.240;20.902;2024-03-17T01:02:19;15.50;;;2.10;;
84660;SDS011;74889;52.240;20.902;2024-03-17T01:04:46;16.80;;;2.40;;
84660;SDS011;74889;52.240;20.902;2024-03-17T01:07:12;18.20;;;2.10;;
84660;SDS011;74889;52.240;20.902;2024-03-17T01:09:38;15.90;;;2.30;;
84660;SDS011;74889;52.240;20.902;2024-03-17T01:12:04;16.30;;;2.30;;
84660;SDS011;74889;52.240;20.902;2024-03-17T01:14:31;13.70;;;2.10;;
84660;SDS011;74889;52.240;20.902;2024-03-17T01:16:56;13.80;;;2.30;;
84660;SDS011;74889;52.240;20.902;2024-03-17T01:19:23;18.90;;;2.30;;
84660;SDS011;74889;52.240;20.902;2024-03-17T01:21:51;11.80;;;2.90;;
84660;SDS011;74889;52.240;20.902;2024-03-17T01:24:17;12.00;;;1.90;;
84660;SDS011;74889;52.240;20.902;2024-03-17T01:26:44;17.00;;;2.00;;
84660;SDS011;74889;52.240;20.902;2024-03-17T01:29:10;9.90;;;2.10;;
84660;SDS011;74889;52.240;20.902;2024-03-17T01:31:37;19.50;;;2.80;;
84660;SDS011;74889;52.240;20.902;2024-03-17T01:34:02;18.30;;;2.60;;
84660;SDS011;74889;52.240;20.902;2024-03-17T01:36:28;12.60;;;1.60;;
84660;SDS011;74889;52.240;20.902;2024-03-17T01:38:54;18.10;;;2.40;;
84660;SDS011;74889;52.240;20.902;2024-03-17T01:41:21;14.20;;;2.30;;
84660;SDS011;74889;52.240;20.902;2024-03-17T01:43:46;15.60;;;1.70;;
84660;SDS011;74889;52.240;20.902;2024-03-17T01:46:13;11.10;;;2.10;;
84660;SDS011;74889;52.240;20.902;2024-03-17T01:48:40;16.60;;;2.90;;
84660;SDS011;74889;52.240;20.902;2024-03-17T01:51:07;15.20;;;2.20;;
84660;SDS011;74889;52.240;20.902;2024-03-17T01:53:35;13.70;;;1.70;;
84660;SDS011;74889;52.240;20.902;2024-03-17T01:56:04;12.00;;;2.60;;
84660;SDS011;74889;52.240;20.902;2024-03-17T01:58:30;18.50;;;2.70;;
84660;SDS011;74889;52.240;20.902;2024-03-17T02:00:57;11.60;;;2.30;;
84660;SDS011;74889;52.240;20.902;2024-03-17T02:03:23;13.60;;;2.70;;
84660;SDS011;74889;52.240;20.902;2024-03-17T02:05:49;13.60;;;1.90;;
84660;SDS011;74889;52.240;20.902;2024-03-17T02:08:15;18.40;;;2.40;;
84660;SDS011;74889;52.240;20.902;2024-03-17T02:10:41;11.30;;;1.70;;
84660;SDS011;74889;52.240;20.902;2024-03-17T02:13:06;15.00;;;2.60;;
84660;SDS011;74889;52.240;20.902;2024-03-17T02:15:32;11.20;;;2.00;;
84660;SDS011;74889;52.240;20.902;2024-03-17T02:17:58;18.90;;;2.80;;
84660;SDS011;74889;52.240;20.902;2024-03-17T02:20:24;14.20;;;2.70;;
84660;SDS011;74889;52.240;20.902;2024-03-17T02:23:10;15.30;;;2.50;;
84660;SDS011;74889;52.240;20.902;2024-03-17T02:25:38;12.50;;;2.70;;
84660;SDS011;74889;52.240;20.902;2024-03-17T02:28:05;13.50;;;2.60;;
84660;SDS011;74889;52.240;20.902;2024-03-17T02:30:31;14.10;;;3.20;;
84660;SDS011;74889;52.240;20.902;2024-03-17T02:32:57;14.50;;;2.40;;
84660;SDS011;74889;52.240;20.902;2024-03-17T02:35:24;15.90;;;2.00;;
84660;SDS011;74889;52.240;20.902;2024-03-17T02:37:50;13.60;;;2.00;;
84660;SDS011;74889;52.240;20.902;2024-03-17T02:40:16;13.30;;;1.80;;
84660;SDS011;74889;52.240;20.902;2024-03-17T02:42:43;13.20;;;2.20;;
84660;SDS011;74889;52.240;20.902;2024-03-17T02:45:11;16.60;;;2.80;;
84660;SDS011;74889;52.240;20.902;2024-03-17T02:47:38;15.20;;;1.90;;
84660;SDS011;74889;52.240;20.902;2024-03-17T02:50:05;21.60;;;2.70;;
84660;SDS011;74889;52.240;20.902;2024-03-17T02:52:31;16.00;;;2.50;;
84660;SDS011;74889;52.240;20.902;2024-03-17T02:54:56;17.10;;;4.00;;
84660;SDS011;74889;52.240;20.902;2024-03-17T02:57:22;13.10;;;2.00;;
84660;SDS011;74889;52.240;20.902;2024-03-17T02:59:57;14.80;;;2.70;;
84660;SDS011;74889;52.240;20.902;2024-03-17T03:02:24;15.10;;;2.10;;
84660;SDS011;74889;52.240;20.902;2024-03-17T03:04:50;18.50;;;2.60;;
84660;SDS011;74889;52.240;20.902;2024-03-17T03:07:16;15.90;;;2.60;;
84660;SDS011;74889;52.240;20.902;2024-03-17T03:09:42;14.00;;;2.60;;
84660;SDS011;74889;52.240;20.902;2024-03-17T03:12:08;20.20;;;2.50;;
84660;SDS011;74889;52.240;20.902;2024-03-17T03:14:33;20.70;;;2.70;;
84660;SDS011;74889;52.240;20.902;2024-03-17T03:16:59;11.60;;;3.00;;
84660;SDS011;74889;52.240;20.902;2024-03-17T03:19:26;15.60;;;2.90;;
84660;SDS011;74889;52.240;20.902;2024-03-17T03:21:52;12.60;;;3.00;;
84660;SDS011;74889;52.240;20.902;2024-03-17T03:24:18;15.30;;;2.30;;
84660;SDS011;74889;52.240;20.902;2024-03-17T03:26:43;10.20;;;2.10;;
84660;SDS011;74889;52.240;20.902;2024-03-17T03:29:10;13.70;;;2.40;;
84660;SDS011;74889;52.240;20.902;2024-03-17T03:31:36;13.50;;;2.50;;
84660;SDS011;74889;52.240;20.902;2024-03-17T03:34:05;11.30;;;2.30;;
84660;SDS011;74889;52.240;20.902;2024-03-17T03:36:34;14.10;;;3.10;;
84660;SDS011;74889;52.240;20.902;2024-03-17T03:39:03;10.20;;;2.20;;
84660;SDS011;74889;52.240;20.902;2024-03-17T03:41:35;15.00;;;2.80;;
84660;SDS011;74889;52.240;20.902;2024-03-17T03:44:00;18.00;;;2.80;;
84660;SDS011;74889;52.240;20.902;2024-03-17T03:46:26;13.70;;;2.80;;
84660;SDS011;74889;52.240;20.902;2024-03-17T03:48:51;13.10;;;2.40;;
84660;SDS011;74889;52.240;20.902;2024-03-17T03:51:17;16.50;;;3.00;;
84660;SDS011;74889;52.240;20.902;2024-03-17T03:53:44;17.70;;;3.20;;
84660;SDS011;74889;52.240;20.902;2024-03-17T03:56:10;16.00;;;3.00;;
84660;SDS011;74889;52.240;20.902;2024-03-17T03:58:36;14.50;;;3.10;;
84660;SDS011;74889;52.240;20.902;2024-03-17T04:01:08;14.10;;;3.30;;
84660;SDS011;74889;52.240;20.902;2024-03-17T04:03:36;15.50;;;3.00;;
84660;SDS011;74889;52.240;20.902;2024-03-17T04:06:06;18.50;;;3.90;;
84660;SDS011;74889;52.240;20.902;2024-03-17T04:08:35;10.90;;;2.80;;
84660;SDS011;74889;52.240;20.902;2024-03-17T04:11:01;14.10;;;3.20;;
84660;SDS011;74889;52.240;20.902;2024-03-17T04:13:29;15.10;;;2.80;;
84660;SDS011;74889;52.240;20.902;2024-03-17T04:15:55;13.50;;;3.20;;
84660;SDS011;74889;52.240;20.902;2024-03-17T04:18:22;13.10;;;2.60;;
84660;SDS011;74889;52.240;20.902;2024-03-17T04:20:50;12.20;;;2.20;;
84660;SDS011;74889;52.240;20.902;2024-03-17T04:23:20;18.50;;;3.50;;
84660;SDS011;74889;52.240;20.902;2024-03-17T04:25:53;18.20;;;3.70;;
84660;SDS011;74889;52.240;20.902;2024-03-17T04:28:19;14.40;;;2.50;;
84660;SDS011;74889;52.240;20.902;2024-03-17T04:30:45;10.60;;;3.30;;
84660;SDS011;74889;52.240;20.902;2024-03-17T04:33:14;13.40;;;3.20;;
84660;SDS011;74889;52.240;20.902;2024-03-17T04:35:39;12.20;;;2.30;;
84660;SDS011;74889;52.240;20.902;2024-03-17T04:38:07;13.30;;;2.70;;
84660;SDS011;74889;52.240;20.902;2024-03-17T04:40:34;16.00;;;2.80;;
84660;SDS011;74889;52.240;20.902;2024-03-17T04:43:05;13.40;;;2.50;;
84660;SDS011;74889;52.240;20.902;2024-03-17T04:45:31;14.80;;;3.40;;
84660;SDS011;74889;52.240;20.902;2024-03-17T04:47:57;10.30;;;2.60;;
84660;SDS011;74889;52.240;20.902;2024-03-17T04:50:23;12.00;;;2.50;;
84660;SDS011;74889;52.240;20.902;2024-03-17T04:52:48;16.10;;;2.60;;
84660;SDS011;74889;52.240;20.902;2024-03-17T04:55:14;12.20;;;2.30;;
84660;SDS011;74889;52.240;20.902;2024-03-17T04:57:43;14.50;;;2.80;;
84660;SDS011;74889;52.240;20.902;2024-03-17T05:00:11;11.80;;;2.90;;
84660;SDS011;74889;52.240;20.902;2024-03-17T05:02:40;11.00;;;2.60;;
84660;SDS011;74889;52.240;20.902;2024-03-17T05:05:05;16.50;;;2.70;;
84660;SDS011;74889;52.240;20.902;2024-03-17T05:07:33;10.90;;;2.30;;
84660;SDS011;74889;52.240;20.902;2024-03-17T05:10:00;16.40;;;3.20;;
84660;SDS011;74889;52.240;20.902;2024-03-17T05:12:25;10.90;;;2.80;;
84660;SDS011;74889;52.240;20.902;2024-03-17T05:14:51;10.60;;;2.20;;
84660;SDS011;74889;52.240;20.902;2024-03-17T05:17:17;13.00;;;2.60;;
84660;SDS011;74889;52.240;20.902;2024-03-17T05:19:44;15.80;;;2.70;;
84660;SDS011;74889;52.240;20.902;2024-03-17T05:22:09;9.90;;;2.80;;
84660;SDS011;74889;52.240;20.902;2024-03-17T05:24:35;13.00;;;2.60;;
84660;SDS011;74889;52.240;20.902;2024-03-17T05:27:01;23.20;;;4.40;;
84660;SDS011;74889;52.240;20.902;2024-03-17T05:29:27;14.40;;;3.00;;
84660;SDS011;74889;52.240;20.902;2024-03-17T05:31:52;12.20;;;2.70;;
84660;SDS011;74889;52.240;20.902;2024-03-17T05:34:18;15.20;;;2.80;;
84660;SDS011;74889;52.240;20.902;2024-03-17T05:36:44;9.20;;;2.90;;
84660;SDS011;74889;52.240;20.902;2024-03-17T05:39:09;17.00;;;3.70;;
84660;SDS011;74889;52.240;20.902;2024-03-17T05:41:35;15.70;;;3.20;;
84660;SDS011;74889;52.240;20.902;2024-03-17T05:44:00;19.10;;;3.90;;
84660;SDS011;74889;52.240;20.902;2024-03-17T05:46:29;14.90;;;3.40;;
84660;SDS011;74889;52.240;20.902;2024-03-17T05:48:55;17.00;;;3.50;;
84660;SDS011;74889;52.240;20.902;2024-03-17T05:51:21;14.30;;;3.20;;
84660;SDS011;74889;52.240;20.902;2024-03-17T05:53:47;15.00;;;2.60;;
84660;SDS011;74889;52.240;20.902;2024-03-17T05:56:13;14.80;;;3.10;;
84660;SDS011;74889;52.240;20.902;2024-03-17T05:58:41;17.00;;;3.50;;
84660;SDS011;74889;52.240;20.902;2024-03-17T06:01:07;10.70;;;2.50;;
84660;SDS011;74889;52.240;20.902;2024-03-17T06:03:33;17.50;;;3.50;;
84660;SDS011;74889;52.240;20.902;2024-03-17T06:06:01;18.00;;;3.00;;
84660;SDS011;74889;52.240;20.902;2024-03-17T06:08:28;11.20;;;3.40;;
84660;SDS011;74889;52.240;20.902;2024-03-17T06:10:55;17.30;;;3.70;;
84660;SDS011;74889;52.240;20.902;2024-03-17T06:13:26;14.40;;;3.10;;
84660;SDS011;74889;52.240;20.902;2024-03-17T06:15:54;14.30;;;3.60;;
84660;SDS011;74889;52.240;20.902;2024-03-17T06:18:25;10.30;;;3.10;;
84660;SDS011;74889;52.240;20.902;2024-03-17T06:20:52;13.90;;;3.80;;
84660;SDS011;74889;52.240;20.902;2024-03-17T06:23:18;13.40;;;3.40;;
84660;SDS011;74889;52.240;20.902;2024-03-17T06:25:46;13.50;;;3.30;;
84660;SDS011;74889;52.240;20.902;2024-03-17T06:28:14;14.40;;;3.70;;
84660;SDS011;74889;52.240;20.902;2024-03-17T06:30:42;13.50;;;3.00;;
84660;SDS011;74889;52.240;20.902;2024-03-17T06:33:11;15.10;;;3.40;;
84660;SDS011;74889;52.240;20.902;2024-03-17T06:35:37;12.50;;;2.80;;
84660;SDS011;74889;52.240;20.902;2024-03-17T06:38:03;15.80;;;3.00;;
84660;SDS011;74889;52.240;20.902;2024-03-17T06:40:30;10.40;;;2.70;;
84660;SDS011;74889;52.240;20.902;2024-03-17T06:42:56;11.40;;;2.80;;
84660;SDS011;74889;52.240;20.902;2024-03-17T06:45:22;13.60;;;3.80;;
84660;SDS011;74889;52.240;20.902;2024-03-17T06:47:48;20.70;;;4.30;;
84660;SDS011;74889;52.240;20.902;2024-03-17T06:50:13;10.10;;;2.60;;
84660;SDS011;74889;52.240;20.902;2024-03-17T06:52:40;12.60;;;2.60;;
84660;SDS011;74889;52.240;20.902;2024-03-17T06:55:07;10.70;;;2.50;;
84660;SDS011;74889;52.240;20.902;2024-03-17T06:57:33;12.30;;;2.30;;
84660;SDS011;74889;52.240;20.902;2024-03-17T06:59:59;9.50;;;2.10;;
84660;SDS011;74889;52.240;20.902;2024-03-17T07:02:26;17.10;;;2.80;;
84660;SDS011;74889;52.240;20.902;2024-03-17T07:04:52;10.90;;;2.70;;
84660;SDS011;74889;52.240;20.902;2024-03-17T07:07:18;18.30;;;2.90;;
84660;SDS011;74889;52.240;20.902;2024-03-17T07:09:43;13.10;;;2.80;;
84660;SDS011;74889;52.240;20.902;2024-03-17T07:12:12;14.60;;;2.90;;
84660;SDS011;74889;52.240;20.902;2024-03-17T07:14:37;11.50;;;1.90;;
84660;SDS011;74889;52.240;20.902;2024-03-17T07:17:04;15.20;;;2.60;;
84660;SDS011;74889;52.240;20.902;2024-03-17T07:19:31;16.10;;;2.40;;
84660;SDS011;74889;52.240;20.902;2024-03-17T07:21:57;12.20;;;2.20;;
84660;SDS011;74889;52.240;20.902;2024-03-17T07:24:23;11.90;;;2.20;;
84660;SDS011;74889;52.240;20.902;2024-03-17T07:26:49;9.30;;;2.30;;
84660;SDS011;74889;52.240;20.902;2024-03-17T07:29:15;12.90;;;2.70;;
84660;SDS011;74889;52.240;20.902;2024-03-17T07:31:41;18.20;;;2.80;;
84660;SDS011;74889;52.240;20.902;2024-03-17T07:34:07;11.60;;;2.50;;
84660;SDS011;74889;52.240;20.902;2024-03-17T07:36:34;10.30;;;2.10;;
84660;SDS011;74889;52.240;20.902;2024-03-17T07:39:00;11.80;;;2.50;;
84660;SDS011;74889;52.240;20.902;2024-03-17T07:41:25;14.00;;;2.70;;
84660;SDS011;74889;52.240;20.902;2024-03-17T07:43:51;9.10;;;2.70;;
84660;SDS011;74889;52.240;20.902;2024-03-17T07:46:16;13.50;;;2.60;;
84660;SDS011;74889;52.240;20.902;2024-03-17T07:48:43;12.20;;;2.70;;
84660;SDS011;74889;52.240;20.902;2024-03-17T07:51:12;13.80;;;3.20;;
84660;SDS011;74889;52.240;20.902;2024-03-17T07:53:43;13.50;;;2.80;;
84660;SDS011;74889;52.240;20.902;2024-03-17T07:56:11;13.20;;;2.70;;
84660;SDS011;74889;52.240;20.902;2024-03-17T07:58:44;10.40;;;2.30;;
84660;SDS011;74889;52.240;20.902;2024-03-17T08:01:11;13.20;;;3.00;;
84660;SDS011;74889;52.240;20.902;2024-03-17T08:03:38;14.80;;;2.70;;
84660;SDS011;74889;52.240;20.902;2024-03-17T08:06:06;10.10;;;2.80;;
84660;SDS011;74889;52.240;20.902;2024-03-17T08:08:33;12.50;;;3.10;;
84660;SDS011;74889;52.240;20.902;2024-03-17T08:11:00;14.50;;;2.70;;
84660;SDS011;74889;52.240;20.902;2024-03-17T08:13:29;10.80;;;2.40;;
84660;SDS011;74889;52.240;20.902;2024-03-17T08:16:06;16.90;;;2.90;;
84660;SDS011;74889;52.240;20.902;2024-03-17T08:18:35;15.20;;;3.00;;
84660;SDS011;74889;52.240;20.902;2024-03-17T08:21:03;13.60;;;2.50;;
84660;SDS011;74889;52.240;20.902;2024-03-17T08:23:35;13.80;;;2.80;;
84660;SDS011;74889;52.240;20.902;2024-03-17T08:26:06;8.50;;;2.40;;
84660;SDS011;74889;52.240;20.902;2024-03-17T08:28:33;10.70;;;3.00;;
84660;SDS011;74889;52.240;20.902;2024-03-17T08:31:00;11.50;;;2.80;;
84660;SDS011;74889;52.240;20.902;2024-03-17T08:33:27;17.70;;;2.80;;
84660;SDS011;74889;52.240;20.902;2024-03-17T08:36:02;11.70;;;2.50;;
84660;SDS011;74889;52.240;20.902;2024-03-17T08:38:29;14.40;;;3.30;;
84660;SDS011;74889;52.240;20.902;2024-03-17T08:40:56;11.30;;;2.60;;
84660;SDS011;74889;52.240;20.902;2024-03-17T08:43:24;9.10;;;2.40;;
84660;SDS011;74889;52.240;20.902;2024-03-17T08:45:57;12.10;;;2.70;;
84660;SDS011;74889;52.240;20.902;2024-03-17T08:48:32;15.50;;;3.30;;
84660;SDS011;74889;52.240;20.902;2024-03-17T08:51:03;17.70;;;3.00;;
84660;SDS011;74889;52.240;20.902;2024-03-17T08:53:30;9.50;;;3.10;;
84660;SDS011;74889;52.240;20.902;2024-03-17T08:55:57;10.20;;;3.10;;
84660;SDS011;74889;52.240;20.902;2024-03-17T08:58:24;13.50;;;3.20;;
84660;SDS011;74889;52.240;20.902;2024-03-17T09:00:49;11.60;;;2.80;;
84660;SDS011;74889;52.240;20.902;2024-03-17T09:03:16;10.90;;;2.70;;
84660;SDS011;74889;52.240;20.902;2024-03-17T09:05:42;10.80;;;3.00;;
84660;SDS011;74889;52.240;20.902;2024-03-17T09:08:19;18.90;;;3.20;;
84660;SDS011;74889;52.240;20.902;2024-03-17T09:10:46;10.20;;;2.50;;
84660;SDS011;74889;52.240;20.902;2024-03-17T09:13:14;9.70;;;2.50;;
84660;SDS011;74889;52.240;20.902;2024-03-17T09:18:27;12.30;;;1.80;;
84660;SDS011;74889;52.240;20.902;2024-03-17T09:23:29;9.80;;;2.40;;
84660;SDS011;74889;52.240;20.902;2024-03-17T09:25:59;9.00;;;2.80;;
84660;SDS011;74889;52.240;20.902;2024-03-17T09:28:27;8.40;;;2.60;;
84660;SDS011;74889;52.240;20.902;2024-03-17T09:30:55;7.20;;;2.20;;
84660;SDS011;74889;52.240;20.902;2024-03-17T09:33:23;7.40;;;2.30;;
84660;SDS011;74889;52.240;20.902;2024-03-17T09:35:52;5.70;;;1.90;;
84660;SDS011;74889;52.240;20.902;2024-03-17T09:38:29;3.90;;;1.50;;
84660;SDS011;74889;52.240;20.902;2024-03-17T09:40:55;5.80;;;1.30;;
84660;SDS011;74889;52.240;20.902;2024-03-17T09:43:33;4.70;;;1.50;;
84660;SDS011;74889;52.240;20.902;2024-03-17T09:46:04;7.60;;;1.70;;
84660;SDS011;74889;52.240;20.902;2024-03-17T09:48:30;7.10;;;2.10;;
84660;SDS011;74889;52.240;20.902;2024-03-17T09:50:57;8.40;;;2.00;;
84660;SDS011;74889;52.240;20.902;2024-03-17T09:55:58;10.30;;;2.40;;
84660;SDS011;74889;52.240;20.902;2024-03-17T09:58:27;7.30;;;2.00;;
84660;SDS011;74889;52.240;20.902;2024-03-17T10:00:53;10.80;;;2.70;;
84660;SDS011;74889;52.240;20.902;2024-03-17T10:06:09;7.00;;;1.70;;
84660;SDS011;74889;52.240;20.902;2024-03-17T10:09:00;4.00;;;1.50;;
84660;SDS011;74889;52.240;20.902;2024-03-17T10:11:41;3.00;;;1.10;;
84660;SDS011;74889;52.240;20.902;2024-03-17T10:14:08;6.70;;;1.50;;
84660;SDS011;74889;52.240;20.902;2024-03-17T10:16:34;8.10;;;1.60;;
84660;SDS011;74889;52.240;20.902;2024-03-17T10:19:10;4.70;;;1.50;;
84660;SDS011;74889;52.240;20.902;2024-03-17T10:21:50;5.80;;;1.50;;
84660;SDS011;74889;52.240;20.902;2024-03-17T10:24:24;8.50;;;2.30;;
84660;SDS011;74889;52.240;20.902;2024-03-17T10:26:53;5.20;;;1.80;;
84660;SDS011;74889;52.240;20.902;2024-03-17T10:29:26;11.10;;;2.10;;
84660;SDS011;74889;52.240;20.902;2024-03-17T10:34:29;5.50;;;1.60;;
84660;SDS011;74889;52.240;20.902;2024-03-17T10:39:37;7.40;;;2.00;;
84660;SDS011;74889;52.240;20.902;2024-03-17T10:42:07;6.20;;;2.50;;
84660;SDS011;74889;52.240;20.902;2024-03-17T10:44:35;8.90;;;2.00;;
84660;SDS011;74889;52.240;20.902;2024-03-17T10:47:02;6.60;;;2.20;;
84660;SDS011;74889;52.240;20.902;2024-03-17T10:49:35;6.60;;;1.80;;
84660;SDS011;74889;52.240;20.902;2024-03-17T10:52:04;7.50;;;2.30;;
84660;SDS011;74889;52.240;20.902;2024-03-17T10:54:31;4.60;;;1.50;;
84660;SDS011;74889;52.240;20.902;2024-03-17T10:57:59;7.10;;;1.90;;
84660;SDS011;74889;52.240;20.902;2024-03-17T10:59:59;4.80;;;1.80;;
84660;SDS011;74889;52.240;20.902;2024-03-17T11:02:30;5.80;;;1.40;;
84660;SDS011;74889;52.240;20.902;2024-03-17T11:05:02;5.30;;;1.60;;
84660;SDS011;74889;52.240;20.902;2024-03-17T11:07:30;4.70;;;1.90;;
84660;SDS011;74889;52.240;20.902;2024-03-17T11:09:59;4.20;;;1.70;;
84660;SDS011;74889;52.240;20.902;2024-03-17T11:20:15;4.10;;;1.90;;
84660;SDS011;74889;52.240;20.902;2024-03-17T11:22:48;5.20;;;1.40;;
84660;SDS011;74889;52.240;20.902;2024-03-17T11:27:56;4.30;;;1.30;;
84660;SDS011;74889;52.240;20.902;2024-03-17T11:38:58;2.90;;;0.70;;
84660;SDS011;74889;52.240;20.902;2024-03-17T11:41:40;1.80;;;0.70;;
84660;SDS011;74889;52.240;20.902;2024-03-17T11:49:27;2.40;;;0.90;;
84660;SDS011;74889;52.240;20.902;2024-03-17T11:51:56;1.70;;;0.60;;
84660;SDS011;74889;52.240;20.902;2024-03-17T11:54:30;3.00;;;0.60;;
84660;SDS011;74889;52.240;20.902;2024-03-17T11:57:03;2.40;;;0.80;;
84660;SDS011;74889;52.240;20.902;2024-03-17T11:59:32;1.90;;;0.90;;
84660;SDS011;74889;52.240;20.902;2024-03-17T12:01:59;1.50;;;0.70;;
84660;SDS011;74889;52.240;20.902;2024-03-17T12:04:25;1.60;;;0.80;;
84660;SDS011;74889;52.240;20.902;2024-03-17T12:06:55;3.10;;;1.80;;
84660;SDS011;74889;52.240;20.902;2024-03-17T12:09:22;2.90;;;0.70;;
84660;SDS011;74889;52.240;20.902;2024-03-17T12:14:17;3.30;;;0.80;;
84660;SDS011;74889;52.240;20.902;2024-03-17T12:16:47;1.90;;;0.90;;
84660;SDS011;74889;52.240;20.902;2024-03-17T12:19:17;1.80;;;0.80;;
84660;SDS011;74889;52.240;20.902;2024-03-17T12:21:43;1.80;;;0.80;;
84660;SDS011;74889;52.240;20.902;2024-03-17T12:24:14;3.30;;;0.70;;
84660;SDS011;74889;52.240;20.902;2024-03-17T12:26:42;1.20;;;0.80;;
84660;SDS011;74889;52.240;20.902;2024-03-17T12:34:21;3.20;;;0.90;;
84660;SDS011;74889;52.240;20.902;2024-03-17T12:36:48;2.70;;;1.00;;
84660;SDS011;74889;52.240;20.902;2024-03-17T12:39:23;1.90;;;0.40;;
84660;SDS011;74889;52.240;20.902;2024-03-17T12:44:39;2.30;;;1.00;;
84660;SDS011;74889;52.240;20.902;2024-03-17T12:47:16;2.60;;;1.10;;
84660;SDS011;74889;52.240;20.902;2024-03-17T12:49:53;2.70;;;1.30;;
84660;SDS011;74889;52.240;20.902;2024-03-17T12:52:22;2.90;;;1.40;;
84660;SDS011;74889;52.240;20.902;2024-03-17T12:54:59;2.60;;;1.10;;
84660;SDS011;74889;52.240;20.902;2024-03-17T12:57:46;5.10;;;1.00;;
84660;SDS011;74889;52.240;20.902;2024-03-17T13:00:32;3.10;;;1.00;;
84660;SDS011;74889;52.240;20.902;2024-03-17T13:02:58;1.90;;;1.00;;
84660;SDS011;74889;52.240;20.902;2024-03-17T13:05:26;3.00;;;1.20;;
84660;SDS011;74889;52.240;20.902;2024-03-17T13:07:52;3.40;;;1.60;;
84660;SDS011;74889;52.240;20.902;2024-03-17T13:10:20;3.00;;;1.30;;
84660;SDS011;74889;52.240;20.902;2024-03-17T13:12:46;2.80;;;1.10;;
84660;SDS011;74889;52.240;20.902;2024-03-17T13:15:17;3.40;;;1.10;;
84660;SDS011;74889;52.240;20.902;2024-03-17T13:17:46;2.30;;;1.30;;
84660;SDS011;74889;52.240;20.902;2024-03-17T13:20:13;2.30;;;1.10;;
84660;SDS011;74889;52.240;20.902;2024-03-17T13:22:43;3.00;;;1.10;;
84660;SDS011;74889;52.240;20.902;2024-03-17T13:25:14;1.50;;;0.90;;
84660;SDS011;74889;52.240;20.902;2024-03-17T13:27:43;1.90;;;0.70;;
84660;SDS011;74889;52.240;20.902;2024-03-17T13:30:14;2.30;;;1.00;;
84660;SDS011;74889;52.240;20.902;2024-03-17T13:32:42;7.10;;;1.80;;
84660;SDS011;74889;52.240;20.902;2024-03-17T13:35:14;3.80;;;1.40;;
84660;SDS011;74889;52.240;20.902;2024-03-17T13:37:45;3.40;;;1.40;;
84660;SDS011;74889;52.240;20.902;2024-03-17T13:40:14;3.00;;;1.30;;
84660;SDS011;74889;52.240;20.902;2024-03-17T13:42:46;3.30;;;1.20;;
84660;SDS011;74889;52.240;20.902;2024-03-17T13:45:15;1.20;;;0.70;;
84660;SDS011;74889;52.240;20.902;2024-03-17T13:47:42;2.10;;;0.60;;
84660;SDS011;74889;52.240;20.902;2024-03-17T13:50:15;2.60;;;0.90;;
84660;SDS011;74889;52.240;20.902;2024-03-17T13:52:42;2.50;;;1.00;;
84660;SDS011;74889;52.240;20.902;2024-03-17T13:55:18;1.90;;;1.10;;
84660;SDS011;74889;52.240;20.902;2024-03-17T13:57:47;2.10;;;1.00;;
84660;SDS011;74889;52.240;20.902;2024-03-17T14:00:17;11.20;;;1.50;;
84660;SDS011;74889;52.240;20.902;2024-03-17T14:02:48;5.50;;;1.50;;
84660;SDS011;74889;52.240;20.902;2024-03-17T14:05:16;5.20;;;1.30;;
84660;SDS011;74889;52.240;20.902;2024-03-17T14:07:43;2.50;;;1.20;;
84660;SDS011;74889;52.240;20.902;2024-03-17T14:10:11;4.10;;;1.40;;
84660;SDS011;74889;52.240;20.902;2024-03-17T14:12:38;4.10;;;1.50;;
84660;SDS011;74889;52.240;20.902;2024-03-17T14:15:07;3.40;;;1.60;;
84660;SDS011;74889;52.240;20.902;2024-03-17T14:17:38;3.80;;;1.40;;
84660;SDS011;74889;52.240;20.902;2024-03-17T14:20:04;4.40;;;2.00;;
84660;SDS011;74889;52.240;20.902;2024-03-17T14:22:42;4.80;;;2.20;;
84660;SDS011;74889;52.240;20.902;2024-03-17T14:25:09;6.00;;;2.00;;
84660;SDS011;74889;52.240;20.902;2024-03-17T14:27:39;4.60;;;2.10;;
84660;SDS011;74889;52.240;20.902;2024-03-17T14:30:06;4.40;;;2.10;;
84660;SDS011;74889;52.240;20.902;2024-03-17T14:32:33;4.90;;;2.30;;
84660;SDS011;74889;52.240;20.902;2024-03-17T14:34:59;3.20;;;1.90;;
84660;SDS011;74889;52.240;20.902;2024-03-17T14:37:25;6.10;;;2.50;;
84660;SDS011;74889;52.240;20.902;2024-03-17T14:39:51;4.00;;;1.90;;
84660;SDS011;74889;52.240;20.902;2024-03-17T14:42:18;4.60;;;2.20;;
84660;SDS011;74889;52.240;20.902;2024-03-17T14:44:46;3.80;;;2.10;;
84660;SDS011;74889;52.240;20.902;2024-03-17T14:47:14;5.70;;;2.40;;
84660;SDS011;74889;52.240;20.902;2024-03-17T14:49:40;8.10;;;2.40;;
84660;SDS011;74889;52.240;20.902;2024-03-17T14:52:08;5.60;;;2.70;;
84660;SDS011;74889;52.240;20.902;2024-03-17T14:54:35;5.20;;;2.30;;
84660;SDS011;74889;52.240;20.902;2024-03-17T14:57:01;8.20;;;2.70;;
84660;SDS011;74889;52.240;20.902;2024-03-17T14:59:28;6.80;;;3.30;;
84660;SDS011;74889;52.240;20.902;2024-03-17T15:01:54;11.20;;;4.10;;
84660;SDS011;74889;52.240;20.902;2024-03-17T15:04:20;7.80;;;3.50;;
84660;SDS011;74889;52.240;20.902;2024-03-17T15:06:45;6.80;;;2.30;;
84660;SDS011;74889;52.240;20.902;2024-03-17T15:09:12;2.10;;;1.40;;
84660;SDS011;74889;52.240;20.902;2024-03-17T15:11:38;4.80;;;2.00;;
84660;SDS011;74889;52.240;20.902;2024-03-17T15:14:04;4.40;;;2.10;;
84660;SDS011;74889;52.240;20.902;2024-03-17T15:16:37;8.40;;;1.90;;
84660;SDS011;74889;52.240;20.902;2024-03-17T15:19:04;2.20;;;1.40;;
84660;SDS011;74889;52.240;20.902;2024-03-17T15:21:31;3.60;;;1.70;;